Time;durP1;ratioP1;P1;durP2;ratioP2;P2;SDS_P1;SDS_P2;PMS_P1;PMS_P2;Temp;Humidity;BMP_temperature;BMP_pressure;BME280_temperature;BME280_humidity;BME280_pressure;Samples;Min_cycle;Max_cycle;Signal;HPM_P1;HPM_P2
2022/05/28 00:00:17;;;;;;;5.00;3.20;;;;;;;17.86;46.48;100059.09;117242;1183;23541;-56
2022/05/28 00:02:44;;;;;;;5.60;3.20;;;;;;;17.86;46.51;100058.73;117370;1186;23013;-55
2022/05/28 00:05:12;;;;;;;5.40;3.60;;;;;;;17.86;46.64;100053.59;117339;1185;22908;-53
2022/05/28 00:07:40;;;;;;;5.80;3.80;;;;;;;17.86;46.68;100052.00;117264;1181;22934;-52
2022/05/28 00:10:09;;;;;;;4.70;3.80;;;;;;;17.79;46.92;100053.02;117375;1185;23486;-53
2022/05/28 00:12:36;;;;;;;4.90;3.90;;;;;;;17.83;46.84;100049.45;117390;1183;23528;-53
2022/05/28 00:15:03;;;;;;;5.20;4.00;;;;;;;17.80;46.94;100047.83;117338;1185;21849;-53
2022/05/28 00:17:30;;;;;;;6.00;4.20;;;;;;;17.79;47.02;100044.14;117209;1183;23580;-55
2022/05/28 00:19:57;;;;;;;4.40;3.60;;;;;;;17.80;46.98;100046.94;117382;1186;23439;-54
2022/05/28 00:22:24;;;;;;;5.40;4.00;;;;;;;17.82;47.17;100043.48;117332;1183;23557;-55
2022/05/28 00:24:51;;;;;;;5.40;3.90;;;;;;;17.82;46.99;100044.00;117275;1186;21854;-56
2022/05/28 00:27:18;;;;;;;6.00;4.40;;;;;;;17.83;47.16;100037.05;117168;1186;24145;-53
2022/05/28 00:29:45;;;;;;;5.80;4.60;;;;;;;17.83;47.27;100040.02;117069;1187;21868;-57
2022/05/28 00:32:12;;;;;;;7.00;4.50;;;;;;;17.83;47.19;100040.73;117112;1185;23568;-56
2022/05/28 00:34:40;;;;;;;6.00;4.90;;;;;;;17.84;47.26;100044.45;117097;1187;21938;-55
2022/05/28 00:37:07;;;;;;;6.00;4.10;;;;;;;17.83;47.27;100042.89;117361;1183;22663;-53
2022/05/28 00:39:34;;;;;;;6.10;4.10;;;;;;;17.83;47.32;100040.42;117371;1185;21862;-53
2022/05/28 00:42:02;;;;;;;6.20;4.50;;;;;;;17.82;47.37;100039.73;117366;1183;22532;-55
2022/05/28 00:44:28;;;;;;;7.70;4.70;;;;;;;17.82;47.40;100038.31;117365;1186;21860;-52
2022/05/28 00:46:56;;;;;;;6.10;5.20;;;;;;;17.81;47.38;100035.16;117329;1182;24195;-52
2022/05/28 00:49:29;;;;;;;5.70;4.80;;;;;;;17.80;47.47;100032.55;117243;1186;23648;-53
2022/05/28 00:51:59;;;;;;;6.20;5.00;;;;;;;17.79;47.51;100033.52;117376;1185;23012;-53
2022/05/28 00:54:46;;;;;;;7.60;4.90;;;;;;;17.77;47.45;100030.94;117129;1182;22940;-56
2022/05/28 00:57:14;;;;;;;8.50;5.60;;;;;;;17.74;47.56;100029.30;117085;1183;23544;-56
2022/05/28 00:59:43;;;;;;;6.60;5.50;;;;;;;17.73;47.54;100025.44;117128;1188;21858;-56
2022/05/28 01:02:30;;;;;;;6.00;5.40;;;;;;;17.70;47.59;100021.83;117234;1185;24598;-53
2022/05/28 01:05:14;;;;;;;6.70;5.20;;;;;;;17.67;47.62;100021.26;117323;1188;22318;-52
2022/05/28 01:08:03;;;;;;;6.20;5.00;;;;;;;17.65;47.67;100021.35;116934;1184;23588;-52
2022/05/28 01:10:46;;;;;;;8.40;5.20;;;;;;;17.64;47.74;100019.84;116971;1187;23466;-56
2022/05/28 01:13:30;;;;;;;12.30;6.50;;;;;;;17.62;47.69;100014.79;117327;1183;24182;-56
2022/05/28 01:16:34;;;;;;;5.70;4.80;;;;;;;17.60;47.81;100017.88;117423;1185;21856;-56
2022/05/28 01:19:06;;;;;;;8.70;5.60;;;;;;;17.59;47.91;100015.48;117419;1185;23564;-52
2022/05/28 01:21:52;;;;;;;7.80;5.70;;;;;;;17.58;47.87;100016.41;117194;1182;23479;-52
2022/05/28 01:24:37;;;;;;;6.30;5.70;;;;;;;17.57;47.91;100017.34;117346;1182;22915;-52
2022/05/28 01:27:15;;;;;;;6.40;5.50;;;;;;;17.55;47.94;100011.92;117390;1185;21849;-56
2022/05/28 01:29:47;;;;;;;7.40;5.80;;;;;;;17.54;47.98;100007.72;117267;1185;21958;-55
2022/05/28 01:32:15;;;;;;;6.70;6.00;;;;;;;17.52;48.05;100005.98;117342;1184;21893;-56
2022/05/28 01:34:42;;;;;;;7.50;5.90;;;;;;;17.52;48.01;100006.02;117325;1186;21838;-52
2022/05/28 01:37:09;;;;;;;7.30;6.30;;;;;;;17.51;48.04;100002.52;117339;1182;22908;-56
2022/05/28 01:39:37;;;;;;;7.30;5.60;;;;;;;17.51;48.19;100003.58;117273;1186;22919;-52
2022/05/28 01:42:06;;;;;;;6.80;6.10;;;;;;;17.51;48.13;100002.36;117354;1185;22096;-56
2022/05/28 01:44:33;;;;;;;8.40;6.70;;;;;;;17.50;48.15;99996.86;117360;1186;21853;-52
2022/05/28 01:47:00;;;;;;;6.80;6.10;;;;;;;17.49;48.20;99992.70;117380;1182;22729;-56
2022/05/28 01:49:27;;;;;;;7.20;6.40;;;;;;;17.48;48.18;99993.08;117208;1186;22023;-56
2022/05/28 01:51:56;;;;;;;7.80;6.30;;;;;;;17.49;48.23;99992.88;117160;1184;24162;-55
2022/05/28 01:54:25;;;;;;;8.80;6.60;;;;;;;17.48;48.22;99992.03;117408;1186;21869;-56
2022/05/28 01:56:53;;;;;;;8.40;7.30;;;;;;;17.47;48.37;99994.19;117216;1182;24145;-56
2022/05/28 01:59:29;;;;;;;15.10;6.70;;;;;;;17.45;48.41;99997.52;117339;1186;21861;-56
2022/05/28 02:01:56;;;;;;;8.00;7.20;;;;;;;17.42;48.41;99999.59;117333;1185;23593;-52
2022/05/28 02:04:23;;;;;;;7.40;6.70;;;;;;;17.39;48.38;99997.41;117363;1183;22993;-52
2022/05/28 02:06:50;;;;;;;8.40;7.10;;;;;;;17.37;48.44;99997.48;117107;1180;23557;-55
2022/05/28 02:09:20;;;;;;;7.30;6.60;;;;;;;17.34;48.34;99999.03;117279;1185;21948;-56
2022/05/28 02:12:21;;;;;;;8.60;7.40;;;;;;;17.31;48.40;99999.91;117312;1186;22537;-56
2022/05/28 02:14:51;;;;;;;9.90;7.10;;;;;;;17.28;48.47;100001.85;117335;1182;23432;-51
2022/05/28 02:17:33;;;;;;;10.90;7.60;;;;;;;17.25;48.48;100012.06;117154;1188;21885;-52
2022/05/28 02:20:12;;;;;;;8.30;7.50;;;;;;;17.21;48.55;100017.90;117544;1182;21989;-51
2022/05/28 02:23:03;;;;;;;8.20;6.70;;;;;;;17.22;48.61;100023.33;117384;1185;21860;-52
2022/05/28 02:25:39;;;;;;;;;;;;;;;17.23;48.60;100022.77;117270;1185;21849;-52
2022/05/28 02:28:07;;;;;;;8.00;6.70;;;;;;;17.24;48.68;100026.98;117224;1186;21849;-55
2022/05/28 02:30:34;;;;;;;7.90;7.10;;;;;;;17.25;48.71;100034.02;117361;1183;24152;-52
2022/05/28 02:33:02;;;;;;;10.50;6.90;;;;;;;17.26;48.82;100031.71;117251;1186;21906;-55
2022/05/28 02:35:29;;;;;;;10.20;7.60;;;;;;;17.30;48.84;100032.06;117171;1183;21928;-52
2022/05/28 02:37:56;;;;;;;9.00;7.30;;;;;;;17.37;48.90;100034.91;117242;1183;21905;-52
2022/05/28 02:40:23;;;;;;;9.20;8.10;;;;;;;17.39;48.76;100029.67;117224;1188;21878;-55
2022/05/28 02:42:50;;;;;;;7.90;7.10;;;;;;;17.37;48.70;100031.16;117061;1186;23542;-52
2022/05/28 02:45:17;;;;;;;8.70;7.10;;;;;;;17.37;48.78;100033.89;117343;1183;21879;-53
2022/05/28 02:47:45;;;;;;;9.30;7.10;;;;;;;17.36;48.75;100034.96;117219;1182;21855;-56
2022/05/28 02:50:12;;;;;;;8.90;8.00;;;;;;;17.36;48.86;100038.50;117635;1183;23556;-53
2022/05/28 02:52:39;;;;;;;8.50;7.40;;;;;;;17.37;48.77;100038.46;117338;1188;21856;-56
2022/05/28 02:55:06;;;;;;;10.40;7.80;;;;;;;17.37;48.85;100033.33;117037;1186;24184;-55
2022/05/28 02:57:33;;;;;;;8.80;7.90;;;;;;;17.40;49.01;100036.40;117297;1183;23722;-52
2022/05/28 03:00:01;;;;;;;10.80;8.20;;;;;;;17.41;48.91;100035.63;117067;1182;22031;-52
2022/05/28 03:02:28;;;;;;;11.70;7.60;;;;;;;17.42;48.97;100039.31;117237;1185;22154;-52
2022/05/28 03:04:55;;;;;;;9.30;8.20;;;;;;;17.41;49.05;100049.83;117330;1186;23540;-56
2022/05/28 03:07:22;;;;;;;11.20;8.70;;;;;;;17.43;49.11;100049.02;117284;1186;21844;-55
2022/05/28 03:09:49;;;;;;;10.40;7.70;;;;;;;17.46;49.24;100053.48;117380;1186;21862;-56
2022/05/28 03:12:17;;;;;;;8.90;7.90;;;;;;;17.51;49.17;100051.11;117326;1182;22901;-52
2022/05/28 03:14:43;;;;;;;10.00;9.00;;;;;;;17.56;49.20;100055.86;117469;1185;21921;-55
2022/05/28 03:17:10;;;;;;;9.50;8.50;;;;;;;17.61;49.24;100062.94;117372;1186;21868;-56
2022/05/28 03:19:37;;;;;;;10.90;9.70;;;;;;;17.67;49.33;100084.25;117348;1185;21829;-55
2022/05/28 03:22:04;;;;;;;11.00;9.20;;;;;;;17.74;49.34;100086.77;117294;1182;22801;-53
2022/05/28 03:24:31;;;;;;;10.40;8.50;;;;;;;17.81;49.36;100090.38;117402;1186;21847;-56
2022/05/28 03:26:59;;;;;;;9.40;8.40;;;;;;;17.85;49.44;100092.48;117388;1182;22825;-55
2022/05/28 03:29:26;;;;;;;13.20;8.70;;;;;;;17.88;49.57;100092.14;117332;1183;22831;-56
2022/05/28 03:31:53;;;;;;;9.10;8.00;;;;;;;17.92;49.64;100091.45;117464;1185;21855;-53
2022/05/28 03:34:20;;;;;;;9.50;7.50;;;;;;;17.97;49.70;100090.51;117477;1180;22923;-53
2022/05/28 03:36:46;;;;;;;8.90;7.00;;;;;;;18.05;49.77;100096.38;117377;1184;21849;-56
2022/05/28 03:39:13;;;;;;;7.50;6.50;;;;;;;18.13;49.80;100098.29;117323;1182;22642;-55
2022/05/28 03:41:40;;;;;;;8.10;5.50;;;;;;;18.20;49.79;100111.96;117288;1186;21880;-55
2022/05/28 03:44:07;;;;;;;6.20;4.60;;;;;;;18.25;49.76;100113.89;117351;1182;23633;-54
2022/05/28 03:46:35;;;;;;;5.70;3.80;;;;;;;18.30;49.73;100124.15;117307;1185;21840;-55
2022/05/28 03:49:27;;;;;;;8.80;4.00;;;;;;;18.33;49.67;100129.48;117351;1185;21853;-54
2022/05/28 03:51:55;;;;;;;4.50;3.10;;;;;;;18.35;49.60;100127.09;117239;1186;21894;-55
2022/05/28 03:54:22;;;;;;;6.40;3.10;;;;;;;18.38;49.65;100126.56;117259;1181;22938;-54
2022/05/28 03:56:49;;;;;;;3.10;2.10;;;;;;;18.49;49.72;100129.75;117221;1185;21855;-55
2022/05/28 03:59:16;;;;;;;4.80;2.50;;;;;;;18.54;49.61;100134.30;118997;1184;22276;-56
2022/05/28 04:01:43;;;;;;;5.10;2.20;;;;;;;18.55;49.58;100133.20;117505;1186;21851;-55
2022/05/28 04:04:10;;;;;;;4.30;1.90;;;;;;;18.55;49.50;100131.94;117040;1180;22915;-54
2022/05/28 04:06:37;;;;;;;3.50;2.10;;;;;;;18.55;49.39;100129.98;117095;1186;21878;-54
2022/05/28 04:09:04;;;;;;;4.40;2.00;;;;;;;18.59;49.29;100140.46;117156;1185;24683;-54
2022/05/28 04:11:31;;;;;;;5.70;1.90;;;;;;;18.63;49.36;100147.38;117388;1183;21866;-56
2022/05/28 04:13:58;;;;;;;2.80;1.80;;;;;;;18.69;49.45;100148.86;117370;1182;23573;-54
2022/05/28 04:16:25;;;;;;;6.70;1.90;;;;;;;18.74;49.44;100148.27;117269;1186;21960;-55
2022/05/28 04:18:52;;;;;;;5.60;2.00;;;;;;;18.79;49.45;100146.42;117143;1188;21849;-54
2022/05/28 04:21:19;;;;;;;5.00;1.80;;;;;;;18.84;49.51;100144.20;117360;1186;21855;-54
2022/05/28 04:23:46;;;;;;;3.50;1.70;;;;;;;18.91;49.48;100148.16;117379;1182;24241;-55
2022/05/28 04:26:13;;;;;;;4.20;1.80;;;;;;;18.98;49.60;100148.16;117312;1186;21849;-55
2022/05/28 04:28:40;;;;;;;2.70;1.50;;;;;;;19.07;49.53;100143.77;117349;1185;21849;-54
2022/05/28 04:31:07;;;;;;;2.20;1.50;;;;;;;19.16;49.51;100141.02;117319;1186;21854;-55
2022/05/28 04:33:34;;;;;;;3.10;1.60;;;;;;;19.25;49.59;100136.11;117400;1186;22932;-54
2022/05/28 04:36:01;;;;;;;2.80;1.60;;;;;;;19.36;49.74;100138.59;117345;1186;21856;-54
2022/05/28 04:38:28;;;;;;;2.60;1.20;;;;;;;19.47;49.61;100137.24;117092;1183;23560;-55
2022/05/28 04:40:55;;;;;;;3.10;1.80;;;;;;;19.57;49.63;100133.55;117183;1187;21854;-55
2022/05/28 04:43:22;;;;;;;2.80;1.40;;;;;;;19.67;49.52;100134.25;117144;1185;23547;-55
2022/05/28 04:45:49;;;;;;;2.40;1.40;;;;;;;19.78;49.57;100135.08;117136;1185;23466;-55
2022/05/28 04:48:16;;;;;;;3.50;1.90;;;;;;;19.92;49.71;100136.84;117348;1185;22994;-55
2022/05/28 04:50:43;;;;;;;4.00;1.50;;;;;;;20.03;49.58;100142.98;117388;1185;21957;-56
2022/05/28 04:53:10;;;;;;;7.20;1.70;;;;;;;20.15;49.66;100144.30;117440;1186;21850;-56
2022/05/28 04:55:38;;;;;;;3.20;1.50;;;;;;;20.37;49.95;100145.73;117369;1182;23576;-56
2022/05/28 04:58:05;;;;;;;3.70;1.40;;;;;;;20.64;50.00;100151.13;117373;1182;21854;-56
2022/05/28 05:00:33;;;;;;;9.60;3.80;;;;;;;20.85;49.95;100150.30;117363;1182;23465;-55
2022/05/28 05:03:00;;;;;;;3.00;1.90;;;;;;;21.02;49.87;100150.55;117339;1182;21854;-55
2022/05/28 05:05:27;;;;;;;6.40;1.70;;;;;;;21.20;49.84;100152.33;117343;1183;22923;-55
2022/05/28 05:07:54;;;;;;;2.50;1.20;;;;;;;21.39;49.77;100148.89;117327;1186;21851;-55
2022/05/28 05:10:23;;;;;;;2.30;1.20;;;;;;;21.57;49.78;100150.30;117263;1186;21853;-55
2022/05/28 05:12:50;;;;;;;3.10;1.70;;;;;;;21.77;49.83;100152.83;117372;1186;23461;-55
2022/05/28 05:15:17;;;;;;;5.00;1.50;;;;;;;21.92;49.73;100145.98;117423;1186;22131;-54
2022/05/28 05:17:45;;;;;;;3.70;1.20;;;;;;;22.08;49.77;100139.44;117248;1185;22947;-56
2022/05/28 05:20:14;;;;;;;9.30;1.50;;;;;;;22.32;49.86;100137.58;117314;1186;21903;-56
2022/05/28 05:22:42;;;;;;;1.40;0.90;;;;;;;22.55;49.82;100134.28;117277;1182;22320;-55
2022/05/28 05:25:10;;;;;;;6.60;1.60;;;;;;;22.76;49.82;100131.11;117071;1186;23082;-55
2022/05/28 05:27:37;;;;;;;2.70;1.20;;;;;;;23.00;49.63;100129.88;117245;1186;23079;-55
2022/05/28 05:30:05;;;;;;;4.60;1.00;;;;;;;23.21;49.71;100132.21;117085;1183;23010;-56
2022/05/28 05:32:32;;;;;;;3.90;1.00;;;;;;;23.40;49.57;100136.23;117059;1187;22810;-56
2022/05/28 05:34:59;;;;;;;2.10;1.40;;;;;;;23.57;49.55;100135.27;117345;1185;21854;-56
2022/05/28 05:37:26;;;;;;;4.10;1.20;;;;;;;23.76;49.53;100136.46;117076;1187;22920;-55
2022/05/28 05:39:53;;;;;;;1.10;0.80;;;;;;;23.89;49.16;100131.57;117169;1186;23544;-55
2022/05/28 05:42:22;;;;;;;4.50;2.10;;;;;;;24.00;49.20;100124.68;117063;1186;21865;-55
2022/05/28 05:44:49;;;;;;;5.00;1.50;;;;;;;24.14;49.15;100117.30;117178;1185;21893;-55
2022/05/28 05:47:16;;;;;;;3.40;1.70;;;;;;;24.29;49.21;100118.87;117217;1186;21920;-55
2022/05/28 05:49:42;;;;;;;2.60;1.20;;;;;;;24.46;49.25;100120.80;117270;1185;21855;-55
2022/05/28 05:52:09;;;;;;;9.00;2.20;;;;;;;24.64;49.23;100114.80;117191;1186;22629;-54
2022/05/28 05:54:36;;;;;;;5.30;1.90;;;;;;;24.84;49.28;100115.85;117081;1182;24185;-54
2022/05/28 05:57:04;;;;;;;17.40;2.60;;;;;;;25.14;49.28;100118.91;117090;1187;23444;-54
2022/05/28 05:59:30;;;;;;;28.40;5.20;;;;;;;25.42;49.10;100123.61;117327;1182;23119;-54
2022/05/28 06:01:58;;;;;;;48.80;10.80;;;;;;;25.64;49.14;100126.18;117033;1188;21859;-54
2022/05/28 06:04:24;;;;;;;88.30;13.10;;;;;;;25.86;48.91;100123.60;117071;1182;21849;-54
2022/05/28 06:06:51;;;;;;;117.60;15.50;;;;;;;26.00;48.70;100124.64;117421;1186;21847;-55
2022/05/28 06:09:18;;;;;;;6.70;2.60;;;;;;;26.13;48.69;100129.52;117096;1187;23542;-55
2022/05/28 06:11:45;;;;;;;20.40;3.30;;;;;;;26.30;48.66;100127.42;117289;1183;21848;-54
2022/05/28 06:14:12;;;;;;;11.40;2.30;;;;;;;26.47;48.54;100127.61;117244;1186;23442;-54
2022/05/28 06:16:39;;;;;;;4.70;1.70;;;;;;;26.60;48.44;100119.91;117099;1187;23538;-55
2022/05/28 06:19:08;;;;;;;2.50;0.90;;;;;;;26.74;48.30;100114.22;117298;1186;21850;-55
2022/05/28 06:21:36;;;;;;;6.20;1.20;;;;;;;26.91;48.27;100113.37;117209;1185;23566;-54
2022/05/28 06:24:05;;;;;;;4.60;2.20;;;;;;;27.07;48.17;100112.73;117354;1185;21852;-55
2022/05/28 06:26:31;;;;;;;4.00;1.00;;;;;;;27.22;48.13;100110.92;117314;1185;22644;-55
2022/05/28 06:28:58;;;;;;;7.40;1.50;;;;;;;27.33;48.01;100108.31;117313;1183;21849;-56
2022/05/28 06:31:25;;;;;;;2.90;1.00;;;;;;;27.45;47.93;100108.92;117292;1182;22640;-55
2022/05/28 06:33:52;;;;;;;5.60;1.30;;;;;;;27.54;47.63;100108.67;117234;1185;21899;-56
2022/05/28 06:36:19;;;;;;;5.00;1.20;;;;;;;27.59;47.54;100107.39;117223;1182;22828;-56
2022/05/28 06:38:47;;;;;;;3.20;1.00;;;;;;;27.74;47.52;100106.25;117170;1184;21852;-56
2022/05/28 06:41:14;;;;;;;2.90;1.10;;;;;;;27.83;47.34;100105.81;117434;1183;21857;-55
2022/05/28 06:43:41;;;;;;;2.10;1.10;;;;;;;27.94;47.40;100099.17;117279;1185;21864;-55
2022/05/28 06:46:08;;;;;;;5.10;1.40;;;;;;;28.09;47.15;100090.13;117293;1185;21850;-55
2022/05/28 06:48:36;;;;;;;5.00;1.30;;;;;;;28.22;47.20;100084.31;117371;1185;21906;-56
2022/05/28 06:51:04;;;;;;;4.80;1.60;;;;;;;28.37;47.31;100081.50;117450;1182;22210;-55
2022/05/28 06:53:38;;;;;;;5.10;1.70;;;;;;;28.56;47.24;100080.24;117434;1182;23455;-57
2022/05/28 06:56:05;;;;;;;5.40;1.60;;;;;;;28.74;47.09;100075.88;117427;1182;22214;-56
2022/05/28 06:58:32;;;;;;;5.00;1.40;;;;;;;28.89;47.02;100075.96;117242;1185;22615;-56
2022/05/28 07:00:59;;;;;;;6.80;1.50;;;;;;;29.08;46.96;100079.82;117330;1182;22896;-56
2022/05/28 07:03:27;;;;;;;5.00;1.40;;;;;;;29.27;46.92;100081.56;117375;1186;21849;-56
2022/05/28 07:05:54;;;;;;;4.10;1.50;;;;;;;29.50;46.88;100081.77;117398;1186;21849;-57
2022/05/28 07:08:22;;;;;;;2.20;1.20;;;;;;;29.71;46.79;100082.08;117359;1185;22602;-56
2022/05/28 07:10:52;;;;;;;2.10;1.20;;;;;;;29.89;46.77;100076.90;117382;1182;23557;-56
2022/05/28 07:13:19;;;;;;;3.50;1.00;;;;;;;30.06;46.60;100073.75;117369;1185;21849;-56
2022/05/28 07:15:46;;;;;;;4.80;1.30;;;;;;;30.19;46.32;100071.27;117345;1183;24171;-56
2022/05/28 07:18:13;;;;;;;2.80;1.00;;;;;;;30.25;46.13;100075.30;117302;1185;22814;-56
2022/05/28 07:20:41;;;;;;;2.00;0.80;;;;;;;30.27;46.02;100078.40;117337;1185;21919;-57
2022/05/28 07:23:15;;;;;;;8.00;1.00;;;;;;;30.27;45.71;100077.28;117363;1186;23987;-57
2022/05/28 07:25:42;;;;;;;2.40;1.20;;;;;;;30.36;45.83;100078.23;117394;1185;21853;-56
2022/05/28 07:28:24;;;;;;;1.30;0.60;;;;;;;30.56;46.05;100076.95;117306;1186;22622;-57
2022/05/28 07:30:52;;;;;;;2.70;0.80;;;;;;;30.83;45.88;100070.56;117166;1181;21852;-56
2022/05/28 07:33:19;;;;;;;1.80;0.80;;;;;;;30.98;45.57;100059.84;117294;1186;21893;-57
2022/05/28 07:35:46;;;;;;;1.80;0.60;;;;;;;31.11;45.60;100060.70;117343;1183;21855;-57
2022/05/28 07:38:13;;;;;;;2.10;0.70;;;;;;;31.33;45.54;100065.82;117309;1182;23031;-56
2022/05/28 07:40:41;;;;;;;1.30;0.60;;;;;;;31.57;45.33;100065.60;117374;1185;21987;-56
2022/05/28 07:43:08;;;;;;;1.60;0.90;;;;;;;31.64;44.96;100067.11;117315;1185;21859;-56
2022/05/28 07:45:36;;;;;;;1.90;0.70;;;;;;;31.71;45.03;100068.14;117391;1186;21969;-56
2022/05/28 07:48:04;;;;;;;2.60;0.60;;;;;;;31.95;45.06;100070.16;117292;1186;23993;-57
2022/05/28 07:50:30;;;;;;;2.30;0.70;;;;;;;32.15;45.00;100073.98;117145;1187;22928;-56
2022/05/28 07:52:58;;;;;;;2.10;0.70;;;;;;;32.28;44.50;100069.73;117373;1182;23569;-56
2022/05/28 07:55:26;;;;;;;1.60;0.80;;;;;;;32.28;44.33;100073.02;117445;1186;22783;-56
2022/05/28 07:57:53;;;;;;;0.70;0.70;;;;;;;32.32;44.21;100079.07;117105;1183;22735;-56
2022/05/28 08:00:20;;;;;;;4.10;0.80;;;;;;;32.48;44.34;100078.14;117298;1181;21893;-57
2022/05/28 08:02:47;;;;;;;1.00;0.70;;;;;;;32.60;44.07;100071.63;117353;1183;24167;-57
2022/05/28 08:05:14;;;;;;;0.80;0.70;;;;;;;32.62;43.77;100067.08;117345;1185;21852;-57
2022/05/28 08:07:41;;;;;;;1.60;0.80;;;;;;;32.57;43.71;100068.36;117138;1184;21951;-56
2022/05/28 08:10:09;;;;;;;2.50;1.10;;;;;;;32.70;43.83;100074.42;117128;1184;22908;-57
2022/05/28 08:12:35;;;;;;;2.90;0.80;;;;;;;32.91;43.80;100080.79;117401;1186;21842;-56
2022/05/28 08:15:03;;;;;;;1.90;0.70;;;;;;;33.18;43.72;100079.58;117350;1184;23653;-56
2022/05/28 08:17:32;;;;;;;2.70;0.90;;;;;;;33.31;43.32;100078.54;117135;1186;21862;-56
2022/05/28 08:19:59;;;;;;;1.40;0.80;;;;;;;33.28;43.08;100078.67;117286;1182;23715;-56
2022/05/28 08:25:31;;;;;;;4.60;0.80;;;;;;;33.55;42.93;100073.95;116926;1188;21857;-56
2022/05/28 08:27:58;;;;;;;2.50;0.60;;;;;;;33.53;42.58;100068.05;116966;1189;22617;-57
2022/05/28 08:30:25;;;;;;;1.70;0.90;;;;;;;33.62;42.81;100071.38;116918;1185;21854;-56
2022/05/28 08:32:52;;;;;;;1.90;0.90;;;;;;;33.95;42.85;100073.48;117053;1184;24165;-57
2022/05/28 08:35:20;;;;;;;2.90;0.70;;;;;;;34.26;42.73;100072.05;117276;1186;21855;-57
2022/05/28 08:37:47;;;;;;;1.40;0.80;;;;;;;34.60;42.73;100075.08;117230;1181;23563;-56
2022/05/28 08:40:14;;;;;;;3.00;0.80;;;;;;;34.81;42.37;100075.93;117039;1187;21960;-56
2022/05/28 08:42:41;;;;;;;1.00;0.60;;;;;;;34.87;42.29;100082.50;117137;1186;21861;-56
2022/05/28 08:45:08;;;;;;;0.90;0.60;;;;;;;35.07;42.27;100083.92;117083;1184;22862;-56
2022/05/28 08:47:37;;;;;;;1.60;1.00;;;;;;;35.34;42.21;100084.35;117135;1185;21893;-57
2022/05/28 08:50:06;;;;;;;5.70;0.90;;;;;;;35.53;42.04;100079.54;117193;1182;22978;-56
2022/05/28 08:53:11;;;;;;;2.80;0.80;;;;;;;35.66;41.81;100077.29;117301;1186;23267;-55
2022/05/28 08:55:45;;;;;;;2.80;0.80;;;;;;;35.90;41.74;100082.79;117006;1183;21858;-55
2022/05/28 08:58:14;;;;;;;2.00;0.80;;;;;;;36.09;41.52;100085.97;117142;1186;21849;-55
2022/05/28 09:00:45;;;;;;;1.80;0.70;;;;;;;36.23;41.35;100086.36;117225;1183;21914;-55
2022/05/28 09:03:15;;;;;;;2.10;0.80;;;;;;;36.37;41.05;100082.58;117150;1188;22507;-57
2022/05/28 09:06:04;;;;;;;1.20;0.70;;;;;;;36.21;40.67;100085.37;117063;1187;22095;-55
2022/05/28 09:08:49;;;;;;;3.60;0.70;;;;;;;35.92;40.37;100084.92;117132;1187;22019;-57
2022/05/28 09:11:33;;;;;;;5.60;0.90;;;;;;;35.99;40.60;100089.70;117096;1185;21870;-56
2022/05/28 09:14:24;;;;;;;1.70;0.50;;;;;;;36.22;40.82;100091.08;117099;1186;21899;-55
2022/05/28 09:16:53;;;;;;;4.70;0.80;;;;;;;36.38;40.34;100087.88;116976;1184;23545;-56
2022/05/28 09:19:30;;;;;;;1.60;0.60;;;;;;;36.40;40.15;100087.72;117119;1186;21853;-55
2022/05/28 09:21:57;;;;;;;1.20;0.80;;;;;;;36.50;40.13;100082.05;117234;1187;21868;-56
2022/05/28 09:24:31;;;;;;;3.30;0.70;;;;;;;36.65;39.94;100075.98;117119;1186;23482;-56
2022/05/28 09:27:29;;;;;;;4.10;1.20;;;;;;;36.55;39.76;100078.31;117069;1186;21907;-56
2022/05/28 09:30:23;;;;;;;1.60;0.80;;;;;;;36.76;39.99;100079.45;117060;1188;21863;-56
2022/05/28 09:33:02;;;;;;;1.00;0.40;;;;;;;37.01;39.46;100075.70;117105;1184;23548;-56
2022/05/28 09:35:45;;;;;;;3.00;0.90;;;;;;;37.11;39.42;100077.41;117288;1186;21857;-57
2022/05/28 09:38:12;;;;;;;1.00;0.80;;;;;;;37.22;39.09;100079.89;117078;1182;22503;-56
2022/05/28 09:40:51;;;;;;;2.00;0.90;;;;;;;37.00;38.43;100077.36;117073;1185;21861;-55
2022/05/28 09:43:21;;;;;;;2.10;1.10;;;;;;;36.50;38.31;100081.19;117328;1183;22321;-54
2022/05/28 09:46:14;;;;;;;;;;;;;;;35.84;37.89;100087.34;117121;1187;22085;-54
2022/05/28 09:48:42;;;;;;;3.90;0.90;;;;;;;35.08;37.78;100084.02;117112;1186;23560;-55
2022/05/28 09:51:23;;;;;;;2.30;0.70;;;;;;;34.83;38.36;100083.70;117077;1186;21856;-56
2022/05/28 09:56:45;;;;;;;2.50;0.70;;;;;;;35.51;38.76;100077.84;117178;1187;23452;-55
2022/05/28 09:59:27;;;;;;;1.20;0.60;;;;;;;35.97;38.94;100076.59;117053;1187;23629;-55
2022/05/28 10:01:57;;;;;;;1.50;0.70;;;;;;;36.50;38.73;100076.90;116953;1185;22090;-54
2022/05/28 10:04:31;;;;;;;2.50;0.80;;;;;;;36.94;38.62;100072.91;117381;1186;23547;-56
2022/05/28 10:07:03;;;;;;;2.00;0.80;;;;;;;37.16;38.27;100064.61;117305;1185;21868;-55
2022/05/28 10:09:32;;;;;;;2.60;0.90;;;;;;;37.25;38.03;100063.14;117026;1187;23547;-56
2022/05/28 10:12:09;;;;;;;4.30;0.80;;;;;;;37.47;38.15;100066.61;117106;1187;22939;-55
2022/05/28 10:14:36;;;;;;;4.40;0.90;;;;;;;37.78;38.07;100058.33;117091;1186;21854;-55
2022/05/28 10:17:03;;;;;;;3.10;0.80;;;;;;;38.02;37.90;100055.34;117009;1185;21931;-56
2022/05/28 10:19:41;;;;;;;1.80;0.90;;;;;;;38.28;37.53;100048.58;117333;1186;23569;-54
2022/05/28 10:22:12;;;;;;;1.50;0.70;;;;;;;38.35;37.26;100043.36;117100;1185;21979;-55
2022/05/28 10:24:44;;;;;;;1.50;0.70;;;;;;;38.62;37.48;100045.48;117052;1188;22619;-55
2022/05/28 10:27:27;;;;;;;2.70;0.70;;;;;;;38.97;37.48;100045.80;117127;1182;23563;-54
2022/05/28 10:29:57;;;;;;;2.50;0.70;;;;;;;39.25;37.26;100046.63;117306;1186;24155;-55
2022/05/28 10:32:33;;;;;;;3.10;0.60;;;;;;;39.52;36.89;100048.33;117317;1184;21855;-55
2022/05/28 10:35:36;;;;;;;3.00;1.20;;;;;;;39.68;36.71;100048.17;117142;1190;21899;-55
2022/05/28 10:38:23;;;;;;;3.10;1.00;;;;;;;39.95;36.80;100047.14;117025;1187;22636;-56
2022/05/28 10:40:54;;;;;;;2.30;1.20;;;;;;;40.27;36.72;100044.20;117004;1184;22957;-56
2022/05/28 10:43:32;;;;;;;3.10;0.80;;;;;;;40.49;36.50;100039.16;117092;1187;22832;-56
2022/05/28 10:46:02;;;;;;;2.10;0.80;;;;;;;40.48;36.15;100038.06;117006;1186;22940;-56
2022/05/28 10:48:54;;;;;;;2.60;0.80;;;;;;;40.57;36.09;100038.66;116984;1187;23563;-55
2022/05/28 10:51:47;;;;;;;1.60;0.80;;;;;;;40.52;35.82;100032.85;117131;1187;21924;-56
2022/05/28 10:54:33;;;;;;;2.90;0.90;;;;;;;40.43;35.74;100024.02;117100;1185;22620;-57
2022/05/28 10:57:13;;;;;;;1.70;0.80;;;;;;;40.24;35.59;100024.04;117079;1185;21867;-55
2022/05/28 10:59:59;;;;;;;4.00;0.80;;;;;;;40.12;35.70;100020.09;117072;1188;23547;-55
2022/05/28 11:02:44;;;;;;;2.20;0.90;;;;;;;40.23;35.55;100016.25;116966;1182;22962;-55
2022/05/28 11:05:25;;;;;;;2.20;1.10;;;;;;;40.07;35.03;100013.81;117285;1185;22109;-55
2022/05/28 11:08:18;;;;;;;2.50;0.80;;;;;;;39.60;34.30;100006.19;117112;1187;21850;-55
2022/05/28 11:11:02;;;;;;;2.40;1.00;;;;;;;39.13;34.58;100006.45;116963;1189;21853;-55
2022/05/28 11:13:51;;;;;;;1.60;0.70;;;;;;;39.01;34.74;99998.99;117251;1186;21849;-55
2022/05/28 11:16:24;;;;;;;2.50;0.80;;;;;;;38.91;34.60;99999.90;116971;1184;23548;-55
2022/05/28 11:18:54;;;;;;;2.30;0.80;;;;;;;38.82;34.34;100001.69;117080;1187;21903;-55
2022/05/28 11:21:33;;;;;;;2.70;0.90;;;;;;;38.59;34.09;100004.55;116969;1184;22618;-55
2022/05/28 11:24:13;;;;;;;2.70;0.80;;;;;;;38.28;33.84;100008.80;117181;1188;21828;-56
2022/05/28 11:26:59;;;;;;;;;;;;;;;37.82;33.67;100003.86;116958;1187;23554;-56
2022/05/28 11:29:51;;;;;;;2.10;0.80;;;;;;;37.45;33.85;100005.02;117192;1188;21857;-56
2022/05/28 11:32:22;;;;;;;3.00;0.90;;;;;;;37.44;34.11;100002.59;117203;1185;23547;-56
2022/05/28 11:35:02;;;;;;;3.20;1.00;;;;;;;37.52;33.86;100001.11;117150;1180;21908;-55
2022/05/28 11:37:31;;;;;;;1.90;0.90;;;;;;;37.33;33.64;100003.58;117265;1185;22620;-56
2022/05/28 11:40:06;;;;;;;7.00;0.90;;;;;;;36.83;33.08;100001.94;117072;1181;22919;-55